Have a Safe July 4th! 

Flight Track Log - Related Links

Times and Time Zones

All times are in EDT time to prevent confusion due to time zone crossing. See the HA117 flight status page for this flight to view local times or setup timezone preferences in your user account.

Time Position Orientation Groundspeed Altitude Reporting Facility
EDT Latitude Longitude Course Direction KTS MPH feet Rate Location/Type
Thu 11:48:00 PM 54.1632 -128.2227 146° Southeast  Level FlightAware Approximate
Thu 11:49:00 PM 54.1126 -128.1640 146° Southeast  Level FlightAware Approximate
Thu 11:49:35 PM 54.2000 -128.3833 146° Southeast 190 219 8,900  Level Vancouver Center
Thu 11:51:46 PM 54.1167 -128.3000 145° Southeast 190 219 10,800 911 Climbing Vancouver Center
Thu 11:52:00 PM 53.9605 -127.9890 146° Southeast  Level FlightAware Approximate
Thu 11:52:46 PM 54.0833 -128.2333 130° Southeast 170 196 11,800  Level Vancouver Center
Thu 11:53:00 PM 53.9098 -127.9309 146° Southeast  Level FlightAware Approximate
Thu 11:53:46 PM 54.0333 -128.2000 159° South 170 196 12,600  Level Vancouver Center
Thu 11:54:00 PM 53.8590 -127.8730 146° Southeast  Level FlightAware Approximate
Thu 11:54:46 PM 54.0000 -128.1500 139° Southeast 180 207 13,600  Level Vancouver Center
Thu 11:55:00 PM 53.8082 -127.8152 146° Southeast  Level FlightAware Approximate
Thu 11:55:46 PM 53.9500 -128.0833 142° Southeast 170 196 14,400  Level Vancouver Center
Thu 11:56:46 PM 53.9167 -128.0500 150° Southeast 190 219 15,200 750 Climbing Vancouver Center
Thu 11:57:46 PM 53.8667 -127.9833 142° Southeast 180 207 15,900 750 Climbing Vancouver Center
Thu 11:58:46 PM 53.8500 -127.9500 130° Southeast 190 219 16,700 800 Climbing Vancouver Center
Thu 11:59:46 PM 53.8000 -127.9000 149° Southeast 190 219 17,500 600 Climbing Vancouver Center
Fri 12:00:46 AM 53.7500 -127.8333 142° Southeast 180 207 17,900 550 Climbing Vancouver Center
Fri 12:01:46 AM 53.7167 -127.8000 149° Southeast 180 207 18,600 600 Climbing Vancouver Center
Fri 12:02:46 AM 53.6667 -127.7333 142° Southeast 190 219 19,100 500 Climbing Vancouver Center
Fri 12:03:46 AM 53.6167 -127.6833 149° Southeast 200 230 19,600 500 Climbing Vancouver Center
Fri 12:04:46 AM 53.5667 -127.6167 142° Southeast 200 230 20,100 500 Climbing Vancouver Center
Fri 12:05:46 AM 53.5167 -127.5833 158° South 210 242 20,600 500 Climbing Vancouver Center
Fri 12:06:46 AM 53.4667 -127.5333 149° Southeast 210 242 21,100 500 Climbing Vancouver Center
Fri 12:07:46 AM 53.4167 -127.4667 142° Southeast 210 242 21,600 450 Climbing Vancouver Center
Fri 12:08:46 AM 53.3833 -127.4000 130° Southeast 210 242 22,000 400 Climbing Vancouver Center
Fri 12:09:46 AM 53.3333 -127.3500 149° Southeast 210 242 22,400 450 Climbing Vancouver Center
Fri 12:10:46 AM 53.3000 -127.3167 149° Southeast 210 242 22,900 300 Climbing Vancouver Center
Fri 12:11:46 AM 53.2500 -127.2500 141° Southeast 200 230 23,000 50 Climbing Vancouver Center
Fri 12:12:46 AM 53.2000 -127.2000 149° Southeast 220 253 23,000  Level Vancouver Center
Fri 12:13:46 AM 53.1333 -127.1333 149° Southeast 230 265 23,000  Level Vancouver Center
Fri 12:14:46 AM 53.0833 -127.0833 149° Southeast 230 265 23,000  Level Vancouver Center
Fri 12:15:46 AM 53.0333 -126.9833 130° Southeast 250 288 23,000  Level Vancouver Center
Fri 12:16:46 AM 52.9667 -126.9333 156° South 260 299 23,000  Level Vancouver Center
Fri 12:17:46 AM 52.9000 -126.8667 149° Southeast 250 288 23,000  Level Vancouver Center
Fri 12:18:46 AM 52.8500 -126.8167 149° Southeast 240 276 23,000  Level Vancouver Center
Fri 12:19:46 AM 52.8000 -126.7500 141° Southeast 240 276 23,000  Level Vancouver Center
Fri 12:20:46 AM 52.7500 -126.6667 135° Southeast 240 276 23,000  Level Vancouver Center
Fri 12:21:46 AM 52.7000 -126.6000 141° Southeast 240 276 23,000  Level Vancouver Center
Fri 12:22:46 AM 52.6333 -126.5500 156° South 240 276 23,000  Level Vancouver Center
Fri 12:23:46 AM 52.5833 -126.4833 141° Southeast 240 276 23,000  Level Vancouver Center
Fri 12:24:46 AM 52.5333 -126.4333 149° Southeast 240 276 23,000  Level Vancouver Center
Fri 12:25:46 AM 52.4667 -126.3667 149° Southeast 240 276 23,000  Level Vancouver Center
Fri 12:26:46 AM 52.4167 -126.3167 149° Southeast 240 276 23,000  Level Vancouver Center
Fri 12:27:46 AM 52.3500 -126.2500 149° Southeast 240 276 23,000  Level Vancouver Center
Fri 12:28:46 AM 52.3000 -126.2000 149° Southeast 240 276 23,000  Level Vancouver Center
Fri 12:29:46 AM 52.2333 -126.1500 155° Southeast 240 276 23,000  Level Vancouver Center
Fri 12:30:46 AM 52.1833 -126.0833 141° Southeast 240 276 23,000  Level Vancouver Center
Fri 12:31:46 AM 52.1333 -126.0000 134° Southeast 240 276 23,000  Level Vancouver Center
Fri 12:32:46 AM 52.0667 -125.9500 155° Southeast 240 276 23,000  Level Vancouver Center
Fri 12:33:46 AM 52.0333 -125.8833 129° Southeast 240 276 23,000  Level Vancouver Center
Fri 12:34:46 AM 51.9667 -125.8333 155° Southeast 240 276 23,000  Level Vancouver Center
Fri 12:35:46 AM 51.9167 -125.7667 141° Southeast 240 276 23,000  Level Vancouver Center
Fri 12:36:46 AM 51.8667 -125.7167 148° Southeast 240 276 23,000  Level Vancouver Center
Fri 12:37:46 AM 51.8000 -125.6667 155° Southeast 240 276 23,000  Level Vancouver Center
Fri 12:38:46 AM 51.7500 -125.6000 140° Southeast 240 276 23,000  Level Vancouver Center
Fri 12:39:46 AM 51.7000 -125.5500 148° Southeast 240 276 23,000  Level Vancouver Center
Fri 12:40:46 AM 51.6333 -125.4667 142° Southeast 240 276 23,000  Level Vancouver Center
Fri 12:41:46 AM 51.5833 -125.4167 148° Southeast 240 276 23,000  Level Vancouver Center
Fri 12:42:46 AM 51.5333 -125.3500 140° Southeast 240 276 23,000  Level Vancouver Center
Fri 12:43:46 AM 51.4667 -125.3000 155° Southeast 240 276 23,000  Level Vancouver Center
Fri 12:44:46 AM 51.4167 -125.2500 148° Southeast 240 276 23,000  Level Vancouver Center
Fri 12:45:46 AM 51.3500 -125.1833 148° Southeast 240 276 23,000  Level Vancouver Center
Fri 12:46:46 AM 51.3333 -125.0833 105° East 250 288 23,000  Level Vancouver Center
Fri 12:47:46 AM 51.3000 -124.9667 115° Southeast 240 276 23,000  Level Vancouver Center
Fri 12:48:46 AM 51.2667 -124.9000 129° Southeast 250 288 23,000  Level Vancouver Center
Fri 12:49:46 AM 51.2333 -124.7833 114° Southeast 250 288 23,000  Level Vancouver Center
Fri 12:50:46 AM 51.2000 -124.6833 118° Southeast 250 288 23,000  Level Vancouver Center
Fri 12:51:46 AM 51.1667 -124.6000 123° Southeast 250 288 23,000  Level Vancouver Center
Fri 12:52:46 AM 51.1333 -124.4833 114° Southeast 250 288 23,000  Level Vancouver Center
Fri 12:53:46 AM 51.1167 -124.4167 112° Southeast 250 288 23,000  Level Vancouver Center
Fri 12:54:46 AM 51.0667 -124.3000 124° Southeast 250 288 23,000  Level Vancouver Center
Fri 12:55:46 AM 51.0167 -124.2833 168° South 230 265 23,000  Level Vancouver Center
Fri 12:56:46 AM 50.9500 -124.2500 163° South 240 276 23,000  Level Vancouver Center
Fri 12:57:46 AM 50.8833 -124.2167 162° South 230 265 23,000  Level Vancouver Center
Fri 12:58:46 AM 50.8167 -124.2000 171° South 240 276 23,000  Level Vancouver Center
Fri 12:59:46 AM 50.7667 -124.1667 157° South 230 265 23,000  Level Vancouver Center
Fri 01:00:46 AM 50.7000 -124.1333 162° South 230 265 23,000 -50 Level Vancouver Center
Fri 01:01:46 AM 50.6333 -124.1167 171° South 240 276 22,900 -400 Descending Vancouver Center
Fri 01:02:46 AM 50.5667 -124.0833 162° South 250 288 22,200 -750 Descending Vancouver Center
Fri 01:03:46 AM 50.5000 -124.0333 154° Southeast 270 311 21,400 -850 Descending Vancouver Center
Fri 01:04:46 AM 50.4333 -124.0167 171° South 280 322 20,500 -1,000 Descending Vancouver Center
Fri 01:05:46 AM 50.3500 -123.9833 166° South 290 334 19,400 -1,050 Descending Vancouver Center
Fri 01:06:46 AM 50.2667 -123.9333 159° South 290 334 18,400 -950 Descending Vancouver Center
Fri 01:07:46 AM 50.1833 -123.9000 166° South 290 334 17,500 -1,050 Descending Vancouver Center
Fri 01:08:46 AM 50.1000 -123.8833 173° South 290 334 16,300 -1,150 Descending Vancouver Center
Fri 01:09:46 AM 50.0333 -123.8167 147° Southeast 290 334 15,200 -1,100 Descending Vancouver Center
Fri 01:10:46 AM 49.9500 -123.8000 173° South 290 334 14,100 -1,100 Descending Vancouver Center
Fri 01:11:46 AM 49.8833 -123.7667 162° South 280 322 13,000 -1,050 Descending Vancouver Center
Fri 01:12:46 AM 49.8000 -123.7500 173° South 280 322 12,000 -1,000 Descending Vancouver Center
Fri 01:13:46 AM 49.7333 -123.7000 154° Southeast 280 322 11,000 -900 Descending Vancouver Center
Fri 01:14:46 AM 49.6667 -123.6167 141° Southeast 280 322 10,200 -500 Descending Vancouver Center
Fri 01:15:46 AM 49.6000 -123.5667 154° Southeast 260 299 10,000 -100 Descending Vancouver Center
Fri 01:16:46 AM 49.5500 -123.5500 168° South 250 288 10,000  Level Vancouver Center
Fri 01:17:46 AM 49.4833 -123.4833 147° Southeast 240 276 10,000  Level Vancouver Center
Fri 01:18:46 AM 49.4167 -123.4333 154° Southeast 240 276 10,000  Level Vancouver Center
Fri 01:19:46 AM 49.3667 -123.3833 147° Southeast 240 276 10,000  Level Vancouver Center
Fri 01:20:46 AM 49.3167 -123.3333 147° Southeast 240 276 10,000  Level Vancouver Center
Fri 01:21:46 AM 49.2667 -123.2667 139° Southeast 240 276 10,000 -850 Level Vancouver Center
Fri 01:22:46 AM 49.2500 -123.1667 104° East 250 288 8,300 -1,550 Descending Vancouver Center
Fri 01:23:46 AM 49.2333 -123.0500 102° East 240 276 6,900 -1,700 Descending Vancouver Center
Fri 01:24:46 AM 49.2333 -122.9833 90° East 230 265 4,900 -1,750 Descending Vancouver Center
Fri 01:25:46 AM 49.2000 -122.8833 117° Southeast 220 253 3,400 -950 Descending Vancouver Center
Fri 01:26:46 AM 49.1667 -122.9333 224° Southwest 190 219 3,000 -700 Descending Vancouver Center
Fri 01:27:46 AM 49.1667 -122.9833 270° West 180 207 2,000 -850 Descending Vancouver Center
Fri 01:28:46 AM 49.1667 -123.0667 270° West 150 173 1,300 -650 Descending Vancouver Center
Fri 01:29:46 AM 49.1667 -123.1167 270° West 120 138 700 -600 Descending Vancouver Center
Fri 01:30:46 AM 49.1833 -123.1667 297° West 110 127 100 -600 Descending Vancouver Center

Login

Don't have an account? Register now (free) for customized features, flight alerts, and more!